Time;durP1;ratioP1;P1;durP2;ratioP2;P2;SDS_P1;SDS_P2;PMS_P1;PMS_P2;Temp;Humidity;BMP_temperature;BMP_pressure;BME280_temperature;BME280_humidity;BME280_pressure;Samples;Min_cycle;Max_cycle;Signal;HPM_P1;HPM_P2
2024/02/19 00:01:05;;;;;;;8.00;4.17;;;;;;;11.12;100.00;99043.88;5188800;22;20570;-85
2024/02/19 00:03:08;;;;;;;5.20;3.40;;;;;;;11.08;100.00;99047.59;5136903;23;20585;-84
2024/02/19 00:05:11;;;;;;;4.13;3.23;;;;;;;11.04;100.00;99040.84;5161731;23;20579;-84
2024/02/19 00:07:17;;;;;;;4.43;3.63;;;;;;;10.95;100.00;99045.75;5161095;23;20907;-87
2024/02/19 00:09:21;;;;;;;4.63;3.77;;;;;;;10.99;100.00;99050.72;5136182;23;20616;-87
2024/02/19 00:11:24;;;;;;;4.10;2.87;;;;;;;11.03;100.00;99049.59;5135741;23;20605;-87
2024/02/19 00:13:27;;;;;;;7.07;3.77;;;;;;;11.10;100.00;99053.56;5161195;23;20675;-87
2024/02/19 00:15:31;;;;;;;4.10;3.13;;;;;;;11.09;100.00;99045.81;5161241;23;20896;-87
2024/02/19 00:17:35;;;;;;;3.40;2.80;;;;;;;11.03;100.00;99041.78;5136112;23;20609;-88
2024/02/19 00:19:39;;;;;;;3.70;2.50;;;;;;;11.01;100.00;99042.81;5162385;23;20591;-88
2024/02/19 00:21:43;;;;;;;2.90;1.73;;;;;;;10.97;100.00;99033.44;5162553;23;20607;-88
2024/02/19 00:23:46;;;;;;;2.77;1.70;;;;;;;10.94;100.00;99044.88;5136193;23;21002;-88
2024/02/19 00:25:48;;;;;;;3.37;1.77;;;;;;;11.00;100.00;99047.16;5134646;23;20582;-87
2024/02/19 00:27:51;;;;;;;3.50;2.00;;;;;;;10.99;100.00;99040.28;5160591;23;20916;-87
2024/02/19 00:29:54;;;;;;;4.77;2.40;;;;;;;11.03;100.00;99039.16;5135807;23;20632;-87
2024/02/19 00:31:58;;;;;;;2.90;2.20;;;;;;;11.07;100.00;99048.53;5161036;23;20576;-87
2024/02/19 00:34:02;;;;;;;3.77;2.60;;;;;;;11.09;100.00;99051.88;5160596;23;20659;-87
2024/02/19 00:36:06;;;;;;;4.83;2.53;;;;;;;11.13;100.00;99056.03;5135707;23;20583;-87
2024/02/19 00:38:09;;;;;;;3.23;2.20;;;;;;;11.15;100.00;99048.94;5160642;23;20613;-87
2024/02/19 00:40:13;;;;;;;3.30;2.37;;;;;;;11.19;100.00;99047.84;5161924;23;20600;-88
2024/02/19 00:42:17;;;;;;;3.80;1.77;;;;;;;11.23;100.00;99057.22;5135844;23;20639;-86
2024/02/19 00:44:21;;;;;;;3.27;1.93;;;;;;;11.25;100.00;99051.91;5189709;22;20599;-87
2024/02/19 00:46:24;;;;;;;2.63;1.70;;;;;;;11.24;100.00;99051.03;5187704;22;20558;-87
2024/02/19 00:48:27;;;;;;;2.33;1.63;;;;;;;11.28;100.00;99055.16;5161383;23;21197;-87
2024/02/19 00:50:32;;;;;;;2.33;1.53;;;;;;;11.29;100.00;99049.88;5190126;22;20583;-87
2024/02/19 00:52:34;;;;;;;2.60;1.57;;;;;;;11.32;100.00;99060.13;5137253;23;20570;-87
2024/02/19 00:54:37;;;;;;;2.40;1.50;;;;;;;11.34;100.00;99049.59;5189245;22;20582;-87
2024/02/19 00:56:41;;;;;;;3.53;1.40;;;;;;;11.35;100.00;99052.13;5162350;23;20658;-87
2024/02/19 00:58:44;;;;;;;1.83;1.10;;;;;;;11.35;100.00;99053.88;5138259;23;21504;-87
2024/02/19 01:00:47;;;;;;;2.47;1.10;;;;;;;11.35;100.00;99051.28;5163111;23;20606;-87
2024/02/19 01:02:51;;;;;;;1.67;0.70;;;;;;;11.35;100.00;99054.75;5138617;23;20589;-87
2024/02/19 01:04:54;;;;;;;1.40;0.60;;;;;;;11.33;100.00;99051.34;5161586;23;20577;-87
2024/02/19 01:06:58;;;;;;;1.27;0.60;;;;;;;11.33;100.00;99050.53;5161056;23;20627;-87
2024/02/19 01:09:03;;;;;;;1.73;0.80;;;;;;;11.32;100.00;99054.91;5136596;23;20644;-87
2024/02/19 01:11:06;;;;;;;2.00;0.80;;;;;;;11.32;100.00;99052.31;5188200;22;21149;-87
2024/02/19 01:13:09;;;;;;;2.10;0.80;;;;;;;11.30;100.00;99046.31;5159872;23;20675;-88
2024/02/19 01:15:12;;;;;;;2.33;1.10;;;;;;;11.34;100.00;99047.00;5158485;23;20588;-87
2024/02/19 01:17:15;;;;;;;1.60;0.70;;;;;;;11.36;100.00;99039.91;5159822;23;20612;-87
2024/02/19 01:19:19;;;;;;;1.50;0.80;;;;;;;11.37;100.00;99044.22;5188201;22;20583;-87
2024/02/19 01:21:23;;;;;;;2.17;0.90;;;;;;;11.38;100.00;99045.88;5161222;23;20588;-87
2024/02/19 01:23:28;;;;;;;1.57;0.80;;;;;;;11.36;100.00;99039.91;5160894;23;20699;-87
2024/02/19 01:25:31;;;;;;;1.67;1.00;;;;;;;11.35;100.00;99033.84;5159229;23;20580;-86
2024/02/19 01:27:34;;;;;;;2.70;1.03;;;;;;;11.34;100.00;99042.59;5133681;23;20755;-87
2024/02/19 01:29:37;;;;;;;3.20;1.30;;;;;;;11.33;100.00;99048.75;5136965;23;20584;-87
2024/02/19 01:31:40;;;;;;;2.93;1.40;;;;;;;11.31;100.00;99049.78;5162079;23;20588;-87
2024/02/19 01:33:43;;;;;;;1.80;0.90;;;;;;;11.30;100.00;99046.31;5136267;23;20915;-87
2024/02/19 01:35:47;;;;;;;2.00;1.20;;;;;;;11.29;100.00;99049.03;5163600;23;20937;-87
2024/02/19 01:37:52;;;;;;;2.50;1.30;;;;;;;11.25;100.00;99039.69;5164114;23;20743;-87
2024/02/19 01:39:57;;;;;;;2.43;1.60;;;;;;;11.24;100.00;99042.38;5164642;23;21177;-87
2024/02/19 01:42:00;;;;;;;1.93;1.23;;;;;;;11.23;100.00;99040.69;5140193;23;20640;-87
2024/02/19 01:44:04;;;;;;;3.47;1.43;;;;;;;11.26;100.00;99040.50;5138783;23;20699;-87
2024/02/19 01:46:09;;;;;;;2.03;1.30;;;;;;;11.22;100.00;99029.41;5161584;23;20679;-87
2024/02/19 01:48:13;;;;;;;1.80;1.20;;;;;;;11.21;100.00;99032.09;5164324;23;20576;-87
2024/02/19 01:50:17;;;;;;;2.03;1.37;;;;;;;11.21;100.00;99030.31;5139010;23;20573;-87
2024/02/19 01:52:20;;;;;;;2.20;1.20;;;;;;;11.22;100.00;99034.63;5139436;23;20600;-87
2024/02/19 01:54:24;;;;;;;2.43;1.77;;;;;;;11.25;100.00;99036.22;5190463;22;20607;-86
2024/02/19 01:56:29;;;;;;;2.53;1.50;;;;;;;11.17;100.00;99031.44;5163856;23;21007;-87
2024/02/19 01:58:32;;;;;;;2.40;1.80;;;;;;;11.17;100.00;99033.19;5190598;22;20627;-87
2024/02/19 02:00:36;;;;;;;2.73;1.57;;;;;;;11.17;100.00;99036.66;5162849;23;20568;-87
2024/02/19 02:02:40;;;;;;;2.50;1.40;;;;;;;11.17;100.00;99039.28;5138941;23;20640;-87
2024/02/19 02:04:43;;;;;;;2.90;1.73;;;;;;;11.21;100.00;99045.16;5164714;23;20627;-87
2024/02/19 02:06:46;;;;;;;4.07;2.10;;;;;;;11.20;100.00;99046.06;5136426;23;21202;-87
2024/02/19 02:08:50;;;;;;;2.50;1.90;;;;;;;11.18;100.00;99043.53;5138881;23;20586;-87
2024/02/19 02:10:53;;;;;;;4.43;1.90;;;;;;;11.19;100.00;99050.47;5164517;23;21118;-87
2024/02/19 02:12:56;;;;;;;3.50;2.00;;;;;;;11.22;100.00;99046.84;5138394;23;20653;-87
2024/02/19 02:15:00;;;;;;;2.63;1.63;;;;;;;11.23;100.00;99051.13;5164266;23;20622;-87
2024/02/19 02:17:03;;;;;;;2.83;2.00;;;;;;;11.23;100.00;99046.75;5189928;22;21070;-87
2024/02/19 02:19:07;;;;;;;3.20;2.30;;;;;;;11.22;100.00;99054.69;5138630;23;20659;-87
2024/02/19 02:21:10;;;;;;;2.60;1.80;;;;;;;11.22;100.00;99054.69;5162746;23;20626;-87
2024/02/19 02:23:15;;;;;;;3.37;2.30;;;;;;;11.25;100.00;99059.72;5139020;23;21033;-87
2024/02/19 02:25:18;;;;;;;4.30;2.67;;;;;;;11.26;100.00;99056.16;5138802;23;20656;-87
2024/02/19 02:27:23;;;;;;;6.10;2.40;;;;;;;11.27;100.00;99050.03;5190464;22;20604;-85
2024/02/19 02:29:26;;;;;;;3.73;2.57;;;;;;;11.20;100.00;99052.16;5163414;23;20556;-85
2024/02/19 02:31:30;;;;;;;3.27;2.67;;;;;;;11.22;100.00;99054.69;5162868;23;20663;-85
2024/02/19 02:33:34;;;;;;;3.43;2.40;;;;;;;11.24;100.00;99058.03;5163973;23;20635;-85
2024/02/19 02:35:38;;;;;;;3.87;2.67;;;;;;;11.25;100.00;99060.56;5164063;23;20584;-85
2024/02/19 02:37:41;;;;;;;4.10;2.87;;;;;;;11.26;100.00;99051.81;5188579;22;20559;-85
2024/02/19 02:39:44;;;;;;;3.60;2.30;;;;;;;11.28;100.00;99044.72;5163899;23;20568;-84
2024/02/19 02:41:48;;;;;;;3.90;2.63;;;;;;;11.27;100.00;99048.25;5163076;23;20577;-85
2024/02/19 02:43:52;;;;;;;3.77;2.70;;;;;;;11.25;100.00;99050.13;5137620;23;20576;-85
2024/02/19 02:45:56;;;;;;;3.13;2.40;;;;;;;11.24;100.00;99052.81;5162370;23;20607;-85
2024/02/19 02:47:59;;;;;;;3.83;2.67;;;;;;;11.21;100.00;99051.22;5133729;23;20707;-85
2024/02/19 02:50:02;;;;;;;4.30;2.40;;;;;;;11.20;100.00;99057.38;5137284;23;20591;-85
2024/02/19 02:52:06;;;;;;;3.23;2.50;;;;;;;11.21;100.00;99050.38;5162607;23;21170;-85
2024/02/19 02:54:08;;;;;;;4.60;2.87;;;;;;;11.23;100.00;99069.41;5189057;22;20579;-85
2024/02/19 02:56:18;;;;;;;4.17;2.80;;;;;;;11.21;100.00;99060.81;5137161;23;21188;-85
2024/02/19 02:58:22;;;;;;;3.83;2.97;;;;;;;11.22;100.00;99057.28;5136805;23;20608;-85
2024/02/19 03:00:27;;;;;;;5.53;3.17;;;;;;;11.23;100.00;99067.66;5135807;23;20570;-85
2024/02/19 03:02:32;;;;;;;5.10;3.20;;;;;;;11.24;100.00;99069.31;5160993;23;20661;-85
2024/02/19 03:04:36;;;;;;;5.07;3.40;;;;;;;11.27;100.00;99064.78;5134398;23;20600;-85
2024/02/19 03:06:39;;;;;;;4.53;3.00;;;;;;;11.25;100.00;99064.97;5187951;22;21161;-85
2024/02/19 03:08:43;;;;;;;4.30;3.40;;;;;;;11.27;100.00;99063.09;5189293;22;21116;-85
2024/02/19 03:10:46;;;;;;;4.63;3.77;;;;;;;11.22;100.00;99054.69;5162853;23;20583;-84
2024/02/19 03:12:49;;;;;;;4.90;3.53;;;;;;;11.25;100.00;99054.50;5137592;23;20581;-84
2024/02/19 03:14:52;;;;;;;5.20;3.70;;;;;;;11.26;100.00;99057.03;5188850;22;20588;-85
2024/02/19 03:16:57;;;;;;;5.00;3.20;;;;;;;11.26;100.00;99057.03;5160116;23;20576;-85
2024/02/19 03:19:00;;;;;;;5.60;3.70;;;;;;;11.29;100.00;99064.69;5137766;23;20597;-85
2024/02/19 03:21:07;;;;;;;5.00;4.20;;;;;;;11.30;100.00;99067.19;5162093;23;20681;-85
2024/02/19 03:23:10;;;;;;;5.47;3.70;;;;;;;11.28;100.00;99056.00;5136877;23;20696;-85
2024/02/19 03:25:13;;;;;;;5.37;3.83;;;;;;;11.28;100.00;99052.56;5137385;23;20585;-85
2024/02/19 03:27:17;;;;;;;4.80;3.90;;;;;;;11.29;100.00;99059.47;5135995;23;20627;-85
2024/02/19 03:29:20;;;;;;;5.90;4.00;;;;;;;11.29;100.00;99064.69;5137865;23;20639;-85
2024/02/19 03:31:24;;;;;;;6.40;4.00;;;;;;;11.32;100.00;99064.50;5136421;23;21246;-85
2024/02/19 03:33:28;;;;;;;4.93;3.80;;;;;;;11.31;100.00;99065.44;5138155;23;20608;-85
2024/02/19 03:35:31;;;;;;;5.77;4.43;;;;;;;11.30;100.00;99063.75;5136779;23;20580;-84
2024/02/19 03:37:37;;;;;;;5.03;4.23;;;;;;;11.33;100.00;99068.81;5136579;23;20585;-87
2024/02/19 03:39:41;;;;;;;6.23;3.40;;;;;;;11.34;100.00;99063.50;5162430;23;20677;-88
2024/02/19 03:41:44;;;;;;;9.07;4.20;;;;;;;11.36;100.00;99071.25;5137102;23;20584;-87
2024/02/19 03:43:48;;;;;;;5.40;3.60;;;;;;;11.39;100.00;99069.28;5136671;23;20600;-87
2024/02/19 03:45:51;;;;;;;4.47;3.30;;;;;;;11.38;100.00;99069.38;5161972;23;20591;-87
2024/02/19 03:47:54;;;;;;;4.30;3.50;;;;;;;11.38;100.00;99066.78;5161734;23;20941;-87
2024/02/19 03:49:59;;;;;;;6.00;3.70;;;;;;;11.38;100.00;99077.22;5137126;23;20672;-87
2024/02/19 03:52:03;;;;;;;6.30;3.40;;;;;;;11.34;100.00;99073.94;5189186;22;20615;-87
2024/02/19 03:54:05;;;;;;;5.90;3.40;;;;;;;11.36;100.00;99079.09;5162003;23;20639;-87
2024/02/19 03:56:08;;;;;;;5.00;3.67;;;;;;;11.38;100.00;99083.31;5161748;23;20576;-87
2024/02/19 03:58:11;;;;;;;4.30;3.43;;;;;;;11.40;100.00;99086.66;5135644;23;20672;-86
2024/02/19 04:00:15;;;;;;;4.60;3.30;;;;;;;11.42;100.00;99087.41;5136932;23;20609;-87
2024/02/19 04:02:17;;;;;;;4.37;3.47;;;;;;;11.45;100.00;99099.47;5161817;23;20588;-87
2024/02/19 04:04:21;;;;;;;5.57;3.50;;;;;;;11.48;100.00;99091.50;5162697;23;20646;-87
2024/02/19 04:06:26;;;;;;;5.30;4.37;;;;;;;11.48;100.00;99094.09;5137097;23;20685;-87
2024/02/19 04:08:29;;;;;;;5.67;3.60;;;;;;;11.50;100.00;99092.25;5136324;23;20687;-87
2024/02/19 04:10:32;;;;;;;6.27;3.63;;;;;;;11.51;100.00;99088.72;5189596;22;20586;-87
2024/02/19 04:12:34;;;;;;;5.70;4.17;;;;;;;11.52;100.00;99088.63;5162516;23;20576;-87
2024/02/19 04:14:40;;;;;;;4.00;3.50;;;;;;;11.51;100.00;99089.53;5162945;23;20595;-87
2024/02/19 04:16:42;;;;;;;6.50;4.50;;;;;;;11.54;100.00;99093.78;5161443;23;20702;-87
2024/02/19 04:18:45;;;;;;;4.43;3.60;;;;;;;11.58;100.00;99100.50;5188749;22;21216;-87
2024/02/19 04:20:49;;;;;;;5.30;3.73;;;;;;;11.59;100.00;99094.34;5161509;23;21346;-87
2024/02/19 04:22:52;;;;;;;5.47;4.03;;;;;;;11.61;100.00;99090.72;5162052;23;21210;-87
2024/02/19 04:24:55;;;;;;;6.53;4.67;;;;;;;11.56;100.00;99084.94;5161420;23;20576;-87
2024/02/19 04:26:58;;;;;;;6.23;4.30;;;;;;;11.49;100.00;99085.34;5136013;23;20928;-87
2024/02/19 04:29:01;;;;;;;5.80;4.57;;;;;;;11.51;100.00;99094.78;5137712;23;20577;-87
2024/02/19 04:31:04;;;;;;;7.43;5.30;;;;;;;11.54;100.00;99099.81;5188677;22;20683;-87
2024/02/19 04:33:07;;;;;;;5.90;4.13;;;;;;;11.58;100.00;99103.13;5161502;23;20572;-88
2024/02/19 04:35:11;;;;;;;6.10;4.90;;;;;;;11.61;100.00;99102.97;5161778;23;20572;-87
2024/02/19 04:37:14;;;;;;;5.53;4.30;;;;;;;11.60;100.00;99099.47;5160051;23;20659;-87
2024/02/19 04:39:19;;;;;;;6.20;4.43;;;;;;;11.62;100.00;99100.25;5134719;23;21534;-86
2024/02/19 04:41:23;;;;;;;6.97;4.77;;;;;;;11.62;100.00;99102.00;5187818;22;20678;-87
2024/02/19 04:43:26;;;;;;;5.30;4.20;;;;;;;11.63;100.00;99098.47;5187390;22;20575;-87
2024/02/19 04:45:29;;;;;;;5.97;4.57;;;;;;;11.64;100.00;99095.78;5135819;23;20954;-87
2024/02/19 04:47:34;;;;;;;8.20;4.57;;;;;;;11.65;100.00;99101.84;5135827;23;20608;-87
2024/02/19 04:49:37;;;;;;;5.57;4.30;;;;;;;11.63;100.00;99101.91;5188346;22;20550;-87
2024/02/19 04:51:40;;;;;;;8.73;4.40;;;;;;;11.63;100.00;99106.31;5137536;23;20569;-87
2024/02/19 04:53:43;;;;;;;9.07;5.00;;;;;;;11.58;100.00;99098.72;5136577;23;20585;-87
2024/02/19 04:55:47;;;;;;;6.17;4.33;;;;;;;11.58;100.00;99098.72;5161941;23;21196;-87
2024/02/19 04:57:50;;;;;;;6.07;4.77;;;;;;;11.58;100.00;99092.69;5161608;23;20680;-88
2024/02/19 04:59:54;;;;;;;6.90;4.57;;;;;;;11.57;100.00;99096.22;5160672;23;20639;-87
2024/02/19 05:01:57;;;;;;;5.73;4.37;;;;;;;11.56;100.00;99095.38;5186718;22;20589;-87
2024/02/19 05:04:01;;;;;;;5.13;4.17;;;;;;;11.51;100.00;99089.53;5135419;23;20600;-87
2024/02/19 05:06:04;;;;;;;5.43;4.03;;;;;;;11.51;100.00;99096.56;5186751;22;20914;-87
2024/02/19 05:08:09;;;;;;;4.90;3.93;;;;;;;11.46;100.00;99093.31;5159967;23;20687;-87
2024/02/19 05:10:13;;;;;;;6.30;4.47;;;;;;;11.46;100.00;99101.16;5159420;23;21515;-87
2024/02/19 05:12:17;;;;;;;8.37;4.60;;;;;;;11.46;100.00;99096.78;5136232;23;20676;-87
2024/02/19 05:14:21;;;;;;;5.30;4.20;;;;;;;11.46;100.00;99099.38;5135101;23;20581;-87
2024/02/19 05:16:23;;;;;;;5.63;4.23;;;;;;;11.47;100.00;99098.50;5134485;23;20659;-87
2024/02/19 05:18:27;;;;;;;5.97;4.37;;;;;;;11.46;100.00;99103.78;5135988;23;20650;-87
2024/02/19 05:20:30;;;;;;;4.87;3.90;;;;;;;11.43;100.00;99099.56;5137014;23;20669;-87
2024/02/19 05:22:33;;;;;;;6.13;4.47;;;;;;;11.43;100.00;99109.16;5160664;23;20576;-87
2024/02/19 05:24:36;;;;;;;8.13;5.17;;;;;;;11.42;100.00;99110.09;5160577;23;20952;-87
2024/02/19 05:26:40;;;;;;;6.27;4.17;;;;;;;11.45;100.00;99115.16;5134085;23;21026;-87
2024/02/19 05:28:45;;;;;;;6.60;4.57;;;;;;;11.45;100.00;99122.97;5160774;23;20573;-87
2024/02/19 05:30:48;;;;;;;6.30;4.63;;;;;;;11.44;100.00;99129.97;5161112;23;20576;-87
2024/02/19 05:32:51;;;;;;;7.07;4.20;;;;;;;11.41;100.00;99113.63;5136481;23;20639;-87
2024/02/19 05:34:55;;;;;;;8.40;4.90;;;;;;;11.40;100.00;99131.06;5135768;23;20583;-87
2024/02/19 05:36:58;;;;;;;5.50;4.20;;;;;;;11.38;100.00;99121.63;5160479;23;20576;-87
2024/02/19 05:39:02;;;;;;;5.70;4.78;;;;;;;11.42;100.00;99137.03;5160187;23;20686;-87
2024/02/19 05:41:05;;;;;;;7.17;4.80;;;;;;;11.44;100.00;99140.44;5135923;23;20583;-88
2024/02/19 05:43:08;;;;;;;6.47;4.50;;;;;;;11.47;100.00;99149.88;5157873;23;20572;-89
2024/02/19 05:45:13;;;;;;;5.60;4.33;;;;;;;11.49;100.00;99153.28;5136001;23;20609;-92
2024/02/19 05:47:16;;;;;;;6.87;4.40;;;;;;;11.50;100.00;99154.94;5136384;23;21121;-91
2024/02/19 05:49:19;;;;;;;7.40;4.37;;;;;;;11.50;100.00;99147.09;5137683;23;20580;-90
2024/02/19 05:51:22;;;;;;;6.87;4.47;;;;;;;11.49;100.00;99148.06;5162320;23;20989;-91
2024/02/19 05:53:25;;;;;;;5.90;4.37;;;;;;;11.51;100.00;99147.00;5162899;23;21070;-92
2024/02/19 05:55:28;;;;;;;5.37;4.30;;;;;;;11.53;100.00;99150.41;5162170;23;20573;-90
2024/02/19 05:57:32;;;;;;;5.93;4.43;;;;;;;11.55;100.00;99163.38;5161733;23;20913;-91
2024/02/19 05:59:35;;;;;;;7.70;4.47;;;;;;;11.53;100.00;99158.25;5137436;23;20615;-91
2024/02/19 06:01:39;;;;;;;5.57;4.07;;;;;;;11.53;100.00;99160.84;5161333;23;20631;-91
2024/02/19 06:03:43;;;;;;;6.40;4.33;;;;;;;11.53;100.00;99167.84;5162928;23;20599;-91
2024/02/19 06:05:46;;;;;;;6.00;4.17;;;;;;;11.54;100.00;99166.91;5189481;22;20611;-92
2024/02/19 06:07:50;;;;;;;6.90;4.47;;;;;;;11.57;100.00;99166.75;5161046;23;21393;-86
2024/02/19 06:09:53;;;;;;;9.20;4.80;;;;;;;11.58;100.00;99163.22;5161369;23;20576;-87
2024/02/19 06:11:56;;;;;;;5.70;4.30;;;;;;;11.58;100.00;99173.66;5161545;23;20603;-87
2024/02/19 06:14:00;;;;;;;11.40;4.60;;;;;;;11.57;100.00;99172.81;5161325;23;20573;-89
2024/02/19 06:16:03;;;;;;;6.77;5.10;;;;;;;11.56;100.00;99180.72;5161654;23;20628;-90
2024/02/19 06:18:08;;;;;;;6.40;4.50;;;;;;;11.58;100.00;99179.72;5137186;23;20583;-89
2024/02/19 06:20:12;;;;;;;6.00;4.13;;;;;;;11.56;100.00;99176.38;5162913;23;20707;-89
2024/02/19 06:22:15;;;;;;;7.40;4.87;;;;;;;11.55;100.00;99187.72;5163477;23;20588;-89
2024/02/19 06:24:17;;;;;;;8.43;4.87;;;;;;;11.53;100.00;99183.50;5139386;23;21135;-89
2024/02/19 06:26:21;;;;;;;6.00;4.77;;;;;;;11.51;100.00;99177.53;5138427;23;20667;-89
2024/02/19 06:28:24;;;;;;;9.33;4.70;;;;;;;11.51;100.00;99178.38;5138340;23;20624;-86
2024/02/19 06:30:26;;;;;;;6.67;4.80;;;;;;;11.50;100.00;99176.69;5162302;23;21155;-87
2024/02/19 06:32:30;;;;;;;7.87;4.90;;;;;;;11.50;100.00;99187.16;5161403;23;20572;-87
2024/02/19 06:34:35;;;;;;;8.43;4.60;;;;;;;11.51;100.00;99195.81;5162450;23;20576;-87
2024/02/19 06:36:39;;;;;;;5.30;4.47;;;;;;;11.50;100.00;99183.69;5137751;23;20576;-87
2024/02/19 06:38:42;;;;;;;7.63;4.17;;;;;;;11.47;100.00;99191.69;5137897;23;20585;-87
2024/02/19 06:40:45;;;;;;;8.73;4.30;;;;;;;11.46;100.00;99189.97;5189625;22;20849;-87
2024/02/19 06:42:49;;;;;;;5.43;3.90;;;;;;;11.46;100.00;99195.19;5162456;23;20626;-87
2024/02/19 06:44:56;;;;;;;6.73;4.03;;;;;;;11.46;100.00;99197.81;5162809;23;20571;-87
2024/02/19 06:46:59;;;;;;;6.17;3.90;;;;;;;11.47;100.00;99196.91;5135583;23;20600;-87
2024/02/19 06:49:04;;;;;;;6.07;3.90;;;;;;;11.45;100.00;99194.34;5162682;23;20583;-87
2024/02/19 06:51:07;;;;;;;11.40;4.80;;;;;;;11.44;100.00;99208.34;5164377;23;20630;-86
2024/02/19 06:53:11;;;;;;;9.20;4.33;;;;;;;11.44;100.00;99202.25;5190959;22;21173;-87
2024/02/19 06:55:13;;;;;;;7.57;4.07;;;;;;;11.46;100.00;99216.09;5138759;23;20592;-88
2024/02/19 06:57:17;;;;;;;6.43;3.80;;;;;;;11.46;99.89;99203.03;5136401;23;20591;-88
2024/02/19 06:59:20;;;;;;;6.87;4.00;;;;;;;11.46;99.79;99203.88;5138597;23;20621;-87
2024/02/19 07:01:23;;;;;;;8.03;4.40;;;;;;;11.47;100.00;99208.22;5163669;23;21202;-87
2024/02/19 07:03:27;;;;;;;11.10;4.60;;;;;;;11.50;99.72;99215.03;5137614;23;20611;-87
2024/02/19 07:05:30;;;;;;;6.60;3.90;;;;;;;11.47;99.75;99217.81;5138358;23;20678;-87
2024/02/19 07:07:34;;;;;;;6.90;4.17;;;;;;;11.44;98.49;99217.94;5163487;23;20576;-88
2024/02/19 07:09:40;;;;;;;6.80;3.10;;;;;;;11.41;98.45;99211.13;5164226;23;20572;-88
2024/02/19 07:11:43;;;;;;;4.13;2.83;;;;;;;11.42;99.66;99210.19;5163772;23;21126;-88
2024/02/19 07:13:49;;;;;;;5.00;3.57;;;;;;;11.44;99.12;99212.72;5164223;23;20977;-91
2024/02/19 07:15:52;;;;;;;4.23;3.20;;;;;;;11.40;98.92;99217.25;5163882;23;20580;-90
2024/02/19 07:17:55;;;;;;;5.03;2.60;;;;;;;11.41;99.43;99218.97;5137818;23;20756;-89
2024/02/19 07:19:59;;;;;;;5.20;3.00;;;;;;;11.40;98.43;99214.66;5189902;22;20575;-88
2024/02/19 07:22:02;;;;;;;4.03;2.67;;;;;;;11.42;97.47;99210.19;5138345;23;20608;-90
2024/02/19 07:24:07;;;;;;;5.27;3.10;;;;;;;11.41;97.19;99221.56;5138157;23;20577;-90
2024/02/19 07:26:10;;;;;;;6.17;2.50;;;;;;;11.38;97.33;99213.91;5163217;23;20572;-89
2024/02/19 07:28:14;;;;;;;4.60;2.73;;;;;;;11.39;98.07;99220.78;5137627;23;21062;-88
2024/02/19 07:30:16;;;;;;;4.87;2.57;;;;;;;11.40;98.30;99226.88;5163852;23;21129;-89
2024/02/19 07:32:19;;;;;;;4.50;2.77;;;;;;;11.40;97.69;99238.16;5163285;23;20634;-90
2024/02/19 07:34:22;;;;;;;4.73;2.60;;;;;;;11.41;98.03;99233.75;5189622;22;20602;-88
2024/02/19 07:36:25;;;;;;;6.60;2.43;;;;;;;11.42;96.88;99241.53;5162405;23;20584;-88
2024/02/19 07:38:29;;;;;;;5.67;2.73;;;;;;;11.41;97.81;99241.59;5162833;23;20700;-88
2024/02/19 07:40:34;;;;;;;3.90;2.30;;;;;;;11.40;96.22;99243.38;5163148;23;20674;-89
2024/02/19 07:42:38;;;;;;;3.50;2.30;;;;;;;11.42;96.72;99248.53;5161098;23;20568;-90
2024/02/19 07:44:42;;;;;;;4.47;2.43;;;;;;;11.41;96.42;99246.81;5160630;23;20572;-91
2024/02/19 07:46:46;;;;;;;4.50;2.33;;;;;;;11.42;97.35;99253.75;5135590;23;20573;-91
2024/02/19 07:48:49;;;;;;;3.40;2.30;;;;;;;11.42;97.36;99254.59;5161672;23;20588;-88
2024/02/19 07:50:52;;;;;;;5.93;2.60;;;;;;;11.43;95.38;99263.28;5134184;23;20611;-89
2024/02/19 07:52:55;;;;;;;5.23;2.77;;;;;;;11.44;96.38;99268.44;5162445;23;20580;-89
2024/02/19 07:54:58;;;;;;;4.73;2.30;;;;;;;11.45;95.32;99267.47;5138018;23;20672;-91
2024/02/19 07:57:03;;;;;;;4.57;2.60;;;;;;;11.45;96.64;99270.09;5163146;23;20930;-91
2024/02/19 07:59:07;;;;;;;4.67;2.73;;;;;;;11.46;95.47;99278.78;5164036;23;20612;-90
2024/02/19 08:01:10;;;;;;;4.97;2.63;;;;;;;11.45;97.04;99280.53;5137647;23;20660;-90
2024/02/19 08:03:13;;;;;;;4.37;2.13;;;;;;;11.48;95.92;99277.81;5137376;23;20950;-89
2024/02/19 08:05:16;;;;;;;4.93;2.43;;;;;;;11.47;94.64;99281.34;5162742;23;20592;-89
2024/02/19 08:07:20;;;;;;;4.80;2.63;;;;;;;11.47;97.16;99286.59;5137588;23;20631;-89
2024/02/19 08:09:24;;;;;;;4.00;2.90;;;;;;;11.50;95.92;99290.78;5164442;23;20606;-89
2024/02/19 08:11:28;;;;;;;8.50;2.60;;;;;;;11.48;94.75;99288.25;5163958;23;20955;-89
2024/02/19 08:13:33;;;;;;;4.10;2.70;;;;;;;11.48;96.70;99290.03;5163274;23;20579;-90
2024/02/19 08:15:37;;;;;;;5.40;2.97;;;;;;;11.48;97.04;99290.03;5163278;23;20637;-88
2024/02/19 08:17:40;;;;;;;6.93;2.70;;;;;;;11.44;96.65;99293.69;5136239;23;20626;-83
2024/02/19 08:19:43;;;;;;;7.43;3.10;;;;;;;11.43;96.50;99300.69;5137174;23;20585;-83
2024/02/19 08:21:48;;;;;;;4.40;2.43;;;;;;;11.37;94.86;99294.94;5136727;23;20708;-82
2024/02/19 08:23:52;;;;;;;4.03;2.20;;;;;;;11.33;95.96;99298.63;5135662;23;21132;-82
2024/02/19 08:25:55;;;;;;;4.53;2.33;;;;;;;11.30;95.02;99302.25;5162196;23;20572;-85
2024/02/19 08:27:58;;;;;;;3.20;2.20;;;;;;;11.28;96.08;99305.88;5161027;23;21103;-83
2024/02/19 08:30:03;;;;;;;3.33;2.20;;;;;;;11.27;95.77;99305.94;5136933;23;20596;-83
2024/02/19 08:32:07;;;;;;;4.83;2.30;;;;;;;11.25;96.43;99308.63;5163408;23;20631;-83
2024/02/19 08:34:11;;;;;;;5.70;2.07;;;;;;;11.24;96.20;99317.38;5163952;23;20675;-83
2024/02/19 08:36:16;;;;;;;5.23;2.50;;;;;;;11.24;95.53;99324.38;5137955;23;20576;-83
2024/02/19 08:38:19;;;;;;;5.87;1.90;;;;;;;11.27;95.00;99316.41;5137941;23;20635;-84
2024/02/19 08:40:23;;;;;;;5.20;2.10;;;;;;;11.28;95.59;99325.00;5163381;23;20588;-84
2024/02/19 08:42:26;;;;;;;6.40;2.30;;;;;;;11.28;94.72;99321.53;5161978;23;20612;-83
2024/02/19 08:44:29;;;;;;;4.67;2.00;;;;;;;11.30;93.71;99327.53;5160509;23;20593;-83
2024/02/19 08:46:33;;;;;;;3.00;2.07;;;;;;;11.32;94.03;99333.50;5135650;23;20967;-83
2024/02/19 08:48:36;;;;;;;6.07;2.10;;;;;;;11.31;94.59;99334.44;5158887;23;20588;-83
2024/02/19 08:50:40;;;;;;;3.03;1.90;;;;;;;11.31;94.21;99337.88;5135500;23;20584;-83
2024/02/19 08:52:43;;;;;;;5.17;1.60;;;;;;;11.31;94.16;99334.44;5137489;23;20569;-83
2024/02/19 08:54:46;;;;;;;4.70;1.87;;;;;;;11.30;94.71;99343.19;5162367;23;20917;-82
2024/02/19 08:56:49;;;;;;;3.57;1.43;;;;;;;11.29;92.94;99326.69;5162201;23;20580;-83
2024/02/19 08:58:52;;;;;;;4.00;1.80;;;;;;;11.28;92.72;99338.03;5137568;23;20584;-84
2024/02/19 09:00:57;;;;;;;3.07;1.60;;;;;;;11.26;92.44;99339.06;5162159;23;21026;-84
2024/02/19 09:03:04;;;;;;;3.43;1.93;;;;;;;11.24;92.43;99337.44;5161190;23;20719;-84
2024/02/19 09:05:09;;;;;;;4.20;1.40;;;;;;;11.21;92.31;99335.00;5162049;23;20626;-84
2024/02/19 09:07:13;;;;;;;4.63;1.70;;;;;;;11.21;92.88;99330.59;5136517;23;20573;-84
2024/02/19 09:09:16;;;;;;;3.47;1.77;;;;;;;11.24;92.51;99340.06;5162351;23;21123;-84
2024/02/19 09:11:20;;;;;;;2.30;1.50;;;;;;;11.20;93.85;99326.31;5161519;23;20580;-83
2024/02/19 09:13:23;;;;;;;3.80;1.77;;;;;;;11.16;92.27;99337.84;5162310;23;20576;-84
2024/02/19 09:15:26;;;;;;;3.70;1.63;;;;;;;11.16;93.73;99337.84;5188814;22;20677;-84
2024/02/19 09:17:29;;;;;;;3.13;1.70;;;;;;;11.18;93.14;99341.19;5162125;23;20587;-84
2024/02/19 09:19:34;;;;;;;4.40;2.00;;;;;;;11.17;92.46;99347.38;5188899;22;20567;-84
2024/02/19 09:21:38;;;;;;;5.03;1.70;;;;;;;11.21;92.60;99341.03;5162491;23;20583;-84
2024/02/19 09:23:42;;;;;;;7.60;1.70;;;;;;;11.25;93.00;99346.97;5189208;22;20567;-84
2024/02/19 09:25:45;;;;;;;5.70;1.80;;;;;;;11.30;93.03;99348.41;5159691;23;20580;-84
2024/02/19 09:27:48;;;;;;;5.43;2.20;;;;;;;11.38;91.50;99348.84;5188338;22;20587;-87
2024/02/19 09:29:52;;;;;;;3.83;1.50;;;;;;;11.48;91.27;99355.34;5137096;23;20589;-87
2024/02/19 09:31:55;;;;;;;3.73;2.10;;;;;;;11.58;92.48;99356.56;5134791;23;21130;-87
2024/02/19 09:33:59;;;;;;;4.00;1.57;;;;;;;11.68;90.10;99349.91;5162106;23;20654;-87
2024/02/19 09:36:06;;;;;;;4.50;2.00;;;;;;;11.73;90.22;99353.13;5160950;23;21129;-87